<?xml version="1.0" encoding="UTF-8" standalone="no" ?>
<gpx xmlns="http://www.topografix.com/GPX/1/1" xmlns:xsi="http://www.w3.org/2001/XMLSchema-instance" xsi:schemaLocation="http://www.topografix.com/GPX/1/1 http://www.topografix.com/GPX/1/1/gpx.xsd" version="1.1" creator="VisuGPX - https://www.visugpx.com">
  <metadata>
    <name>Maison Ste Victoire à St Antonin sur Bayon</name>
  </metadata>
  <trk>
    <name><![CDATA[Maison ste Victoire st antonin]]></name>
    <trkseg>
      <trkpt lat="43.51878" lon="5.5851">
        <ele>429</ele>
        <time>2020-02-18T13:02:48Z</time>
      </trkpt>
      <trkpt lat="43.51879" lon="5.58497">
        <ele>427</ele>
        <time>2020-02-18T13:02:57Z</time>
      </trkpt>
      <trkpt lat="43.51882" lon="5.58485">
        <ele>424</ele>
        <time>2020-02-18T13:03:09Z</time>
      </trkpt>
      <trkpt lat="43.51884" lon="5.58473">
        <ele>425</ele>
        <time>2020-02-18T13:03:19Z</time>
      </trkpt>
      <trkpt lat="43.51884" lon="5.58459">
        <ele>423</ele>
        <time>2020-02-18T13:03:29Z</time>
      </trkpt>
      <trkpt lat="43.51885" lon="5.58445">
        <ele>423</ele>
        <time>2020-02-18T13:03:39Z</time>
      </trkpt>
      <trkpt lat="43.51885" lon="5.58432">
        <ele>421</ele>
        <time>2020-02-18T13:03:48Z</time>
      </trkpt>
      <trkpt lat="43.51886" lon="5.58419">
        <ele>420</ele>
        <time>2020-02-18T13:03:57Z</time>
      </trkpt>
      <trkpt lat="43.51886" lon="5.58406">
        <ele>419</ele>
        <time>2020-02-18T13:04:06Z</time>
      </trkpt>
      <trkpt lat="43.51881" lon="5.58395">
        <ele>423</ele>
        <time>2020-02-18T13:04:17Z</time>
      </trkpt>
      <trkpt lat="43.51873" lon="5.5839">
        <ele>424</ele>
        <time>2020-02-18T13:04:32Z</time>
      </trkpt>
      <trkpt lat="43.51863" lon="5.58387">
        <ele>424</ele>
        <time>2020-02-18T13:04:45Z</time>
      </trkpt>
      <trkpt lat="43.5186" lon="5.58375">
        <ele>422</ele>
        <time>2020-02-18T13:04:57Z</time>
      </trkpt>
      <trkpt lat="43.5186" lon="5.58361">
        <ele>419</ele>
        <time>2020-02-18T13:05:08Z</time>
      </trkpt>
      <trkpt lat="43.51859" lon="5.58349">
        <ele>418</ele>
        <time>2020-02-18T13:05:17Z</time>
      </trkpt>
      <trkpt lat="43.51861" lon="5.58336">
        <ele>417</ele>
        <time>2020-02-18T13:05:27Z</time>
      </trkpt>
      <trkpt lat="43.51863" lon="5.58322">
        <ele>418</ele>
        <time>2020-02-18T13:05:38Z</time>
      </trkpt>
      <trkpt lat="43.51862" lon="5.58308">
        <ele>417</ele>
        <time>2020-02-18T13:05:48Z</time>
      </trkpt>
      <trkpt lat="43.5186" lon="5.58295">
        <ele>418</ele>
        <time>2020-02-18T13:05:57Z</time>
      </trkpt>
      <trkpt lat="43.51858" lon="5.58282">
        <ele>417</ele>
        <time>2020-02-18T13:06:07Z</time>
      </trkpt>
      <trkpt lat="43.51848" lon="5.5828">
        <ele>423</ele>
        <time>2020-02-18T13:06:19Z</time>
      </trkpt>
      <trkpt lat="43.51839" lon="5.58278">
        <ele>424</ele>
        <time>2020-02-18T13:06:29Z</time>
      </trkpt>
      <trkpt lat="43.5183" lon="5.58278">
        <ele>426</ele>
        <time>2020-02-18T13:06:37Z</time>
      </trkpt>
      <trkpt lat="43.5182" lon="5.58277">
        <ele>426</ele>
        <time>2020-02-18T13:06:47Z</time>
      </trkpt>
      <trkpt lat="43.5181" lon="5.58278">
        <ele>424</ele>
        <time>2020-02-18T13:06:58Z</time>
      </trkpt>
      <trkpt lat="43.51801" lon="5.58278">
        <ele>426</ele>
        <time>2020-02-18T13:07:05Z</time>
      </trkpt>
      <trkpt lat="43.51791" lon="5.58277">
        <ele>426</ele>
        <time>2020-02-18T13:07:15Z</time>
      </trkpt>
      <trkpt lat="43.51782" lon="5.58276">
        <ele>425</ele>
        <time>2020-02-18T13:07:25Z</time>
      </trkpt>
      <trkpt lat="43.51773" lon="5.58282">
        <ele>420</ele>
        <time>2020-02-18T13:07:39Z</time>
      </trkpt>
      <trkpt lat="43.51764" lon="5.58278">
        <ele>418</ele>
        <time>2020-02-18T13:07:51Z</time>
      </trkpt>
      <trkpt lat="43.51757" lon="5.5827">
        <ele>415</ele>
        <time>2020-02-18T13:10:24Z</time>
      </trkpt>
      <trkpt lat="43.51748" lon="5.58272">
        <ele>415</ele>
        <time>2020-02-18T13:11:00Z</time>
      </trkpt>
      <trkpt lat="43.51743" lon="5.58285">
        <ele>413</ele>
        <time>2020-02-18T13:11:11Z</time>
      </trkpt>
      <trkpt lat="43.51739" lon="5.58296">
        <ele>415</ele>
        <time>2020-02-18T13:11:21Z</time>
      </trkpt>
      <trkpt lat="43.51735" lon="5.58308">
        <ele>415</ele>
        <time>2020-02-18T13:11:32Z</time>
      </trkpt>
      <trkpt lat="43.51733" lon="5.58321">
        <ele>414</ele>
        <time>2020-02-18T13:12:02Z</time>
      </trkpt>
      <trkpt lat="43.51731" lon="5.58334">
        <ele>417</ele>
        <time>2020-02-18T13:12:13Z</time>
      </trkpt>
      <trkpt lat="43.5173" lon="5.58347">
        <ele>417</ele>
        <time>2020-02-18T13:12:24Z</time>
      </trkpt>
      <trkpt lat="43.51728" lon="5.58361">
        <ele>418</ele>
        <time>2020-02-18T13:12:46Z</time>
      </trkpt>
      <trkpt lat="43.51725" lon="5.58373">
        <ele>420</ele>
        <time>2020-02-18T13:12:54Z</time>
      </trkpt>
      <trkpt lat="43.51721" lon="5.58385">
        <ele>420</ele>
        <time>2020-02-18T13:13:04Z</time>
      </trkpt>
      <trkpt lat="43.51715" lon="5.58395">
        <ele>420</ele>
        <time>2020-02-18T13:13:14Z</time>
      </trkpt>
      <trkpt lat="43.51707" lon="5.58402">
        <ele>422</ele>
        <time>2020-02-18T13:13:24Z</time>
      </trkpt>
      <trkpt lat="43.517" lon="5.58412">
        <ele>425</ele>
        <time>2020-02-18T13:13:35Z</time>
      </trkpt>
      <trkpt lat="43.51697" lon="5.58424">
        <ele>426</ele>
        <time>2020-02-18T13:13:44Z</time>
      </trkpt>
      <trkpt lat="43.51693" lon="5.58435">
        <ele>427</ele>
        <time>2020-02-18T13:13:54Z</time>
      </trkpt>
      <trkpt lat="43.51689" lon="5.58447">
        <ele>426</ele>
        <time>2020-02-18T13:14:05Z</time>
      </trkpt>
      <trkpt lat="43.51685" lon="5.58459">
        <ele>426</ele>
        <time>2020-02-18T13:14:14Z</time>
      </trkpt>
      <trkpt lat="43.51681" lon="5.58471">
        <ele>428</ele>
        <time>2020-02-18T13:14:24Z</time>
      </trkpt>
      <trkpt lat="43.51678" lon="5.58484">
        <ele>429</ele>
        <time>2020-02-18T13:14:35Z</time>
      </trkpt>
      <trkpt lat="43.51676" lon="5.58497">
        <ele>429</ele>
        <time>2020-02-18T13:14:45Z</time>
      </trkpt>
      <trkpt lat="43.51669" lon="5.58506">
        <ele>432</ele>
        <time>2020-02-18T13:17:33Z</time>
      </trkpt>
      <trkpt lat="43.5166" lon="5.58505">
        <ele>432</ele>
        <time>2020-02-18T13:17:43Z</time>
      </trkpt>
      <trkpt lat="43.51657" lon="5.58493">
        <ele>435</ele>
        <time>2020-02-18T13:17:54Z</time>
      </trkpt>
      <trkpt lat="43.51657" lon="5.5848">
        <ele>432</ele>
        <time>2020-02-18T13:18:04Z</time>
      </trkpt>
      <trkpt lat="43.51656" lon="5.58467">
        <ele>432</ele>
        <time>2020-02-18T13:18:14Z</time>
      </trkpt>
      <trkpt lat="43.51655" lon="5.58453">
        <ele>432</ele>
        <time>2020-02-18T13:18:25Z</time>
      </trkpt>
      <trkpt lat="43.51657" lon="5.58441">
        <ele>431</ele>
        <time>2020-02-18T13:18:35Z</time>
      </trkpt>
      <trkpt lat="43.51656" lon="5.58428">
        <ele>430</ele>
        <time>2020-02-18T13:18:45Z</time>
      </trkpt>
      <trkpt lat="43.51657" lon="5.58415">
        <ele>432</ele>
        <time>2020-02-18T13:18:54Z</time>
      </trkpt>
      <trkpt lat="43.51658" lon="5.58403">
        <ele>431</ele>
        <time>2020-02-18T13:19:04Z</time>
      </trkpt>
      <trkpt lat="43.51661" lon="5.5839">
        <ele>429</ele>
        <time>2020-02-18T13:19:13Z</time>
      </trkpt>
      <trkpt lat="43.51661" lon="5.58377">
        <ele>430</ele>
        <time>2020-02-18T13:19:22Z</time>
      </trkpt>
      <trkpt lat="43.51655" lon="5.58367">
        <ele>433</ele>
        <time>2020-02-18T13:19:33Z</time>
      </trkpt>
      <trkpt lat="43.51647" lon="5.58362">
        <ele>436</ele>
        <time>2020-02-18T13:19:45Z</time>
      </trkpt>
      <trkpt lat="43.5164" lon="5.58373">
        <ele>435</ele>
        <time>2020-02-18T13:19:56Z</time>
      </trkpt>
      <trkpt lat="43.51634" lon="5.58382">
        <ele>436</ele>
        <time>2020-02-18T13:20:06Z</time>
      </trkpt>
      <trkpt lat="43.51632" lon="5.58395">
        <ele>436</ele>
        <time>2020-02-18T13:20:19Z</time>
      </trkpt>
      <trkpt lat="43.51628" lon="5.58407">
        <ele>436</ele>
        <time>2020-02-18T13:20:34Z</time>
      </trkpt>
      <trkpt lat="43.51624" lon="5.58419">
        <ele>437</ele>
        <time>2020-02-18T13:20:45Z</time>
      </trkpt>
      <trkpt lat="43.51619" lon="5.58431">
        <ele>437</ele>
        <time>2020-02-18T13:20:53Z</time>
      </trkpt>
      <trkpt lat="43.51614" lon="5.58442">
        <ele>437</ele>
        <time>2020-02-18T13:21:03Z</time>
      </trkpt>
      <trkpt lat="43.51608" lon="5.58452">
        <ele>436</ele>
        <time>2020-02-18T13:21:13Z</time>
      </trkpt>
      <trkpt lat="43.51604" lon="5.58465">
        <ele>438</ele>
        <time>2020-02-18T13:21:24Z</time>
      </trkpt>
      <trkpt lat="43.51601" lon="5.58478">
        <ele>440</ele>
        <time>2020-02-18T13:21:35Z</time>
      </trkpt>
      <trkpt lat="43.51597" lon="5.5849">
        <ele>441</ele>
        <time>2020-02-18T13:21:46Z</time>
      </trkpt>
      <trkpt lat="43.51595" lon="5.58502">
        <ele>442</ele>
        <time>2020-02-18T13:21:54Z</time>
      </trkpt>
      <trkpt lat="43.51593" lon="5.58515">
        <ele>443</ele>
        <time>2020-02-18T13:22:06Z</time>
      </trkpt>
      <trkpt lat="43.51588" lon="5.58527">
        <ele>445</ele>
        <time>2020-02-18T13:22:16Z</time>
      </trkpt>
      <trkpt lat="43.51584" lon="5.58539">
        <ele>445</ele>
        <time>2020-02-18T13:22:27Z</time>
      </trkpt>
      <trkpt lat="43.51581" lon="5.5855">
        <ele>444</ele>
        <time>2020-02-18T13:22:38Z</time>
      </trkpt>
      <trkpt lat="43.51576" lon="5.58562">
        <ele>444</ele>
        <time>2020-02-18T13:22:48Z</time>
      </trkpt>
      <trkpt lat="43.5157" lon="5.58572">
        <ele>444</ele>
        <time>2020-02-18T13:22:58Z</time>
      </trkpt>
      <trkpt lat="43.51564" lon="5.58581">
        <ele>445</ele>
        <time>2020-02-18T13:24:46Z</time>
      </trkpt>
      <trkpt lat="43.51557" lon="5.58591">
        <ele>445</ele>
        <time>2020-02-18T13:24:55Z</time>
      </trkpt>
      <trkpt lat="43.51554" lon="5.58604">
        <ele>446</ele>
        <time>2020-02-18T13:25:06Z</time>
      </trkpt>
      <trkpt lat="43.51554" lon="5.58618">
        <ele>444</ele>
        <time>2020-02-18T13:25:17Z</time>
      </trkpt>
      <trkpt lat="43.51557" lon="5.5863">
        <ele>443</ele>
        <time>2020-02-18T13:25:26Z</time>
      </trkpt>
      <trkpt lat="43.51557" lon="5.58643">
        <ele>444</ele>
        <time>2020-02-18T13:25:36Z</time>
      </trkpt>
      <trkpt lat="43.51554" lon="5.58656">
        <ele>444</ele>
        <time>2020-02-18T13:25:49Z</time>
      </trkpt>
      <trkpt lat="43.5155" lon="5.58668">
        <ele>443</ele>
        <time>2020-02-18T13:26:00Z</time>
      </trkpt>
      <trkpt lat="43.51547" lon="5.5868">
        <ele>443</ele>
        <time>2020-02-18T13:26:10Z</time>
      </trkpt>
      <trkpt lat="43.51544" lon="5.58693">
        <ele>443</ele>
        <time>2020-02-18T13:26:20Z</time>
      </trkpt>
      <trkpt lat="43.51541" lon="5.58706">
        <ele>446</ele>
        <time>2020-02-18T13:26:29Z</time>
      </trkpt>
      <trkpt lat="43.51535" lon="5.58715">
        <ele>446</ele>
        <time>2020-02-18T13:26:37Z</time>
      </trkpt>
      <trkpt lat="43.51528" lon="5.58722">
        <ele>448</ele>
        <time>2020-02-18T13:26:47Z</time>
      </trkpt>
      <trkpt lat="43.51521" lon="5.58732">
        <ele>447</ele>
        <time>2020-02-18T13:26:56Z</time>
      </trkpt>
      <trkpt lat="43.51519" lon="5.58744">
        <ele>447</ele>
        <time>2020-02-18T13:27:05Z</time>
      </trkpt>
      <trkpt lat="43.51517" lon="5.58757">
        <ele>444</ele>
        <time>2020-02-18T13:27:15Z</time>
      </trkpt>
      <trkpt lat="43.51515" lon="5.58771">
        <ele>448</ele>
        <time>2020-02-18T13:27:24Z</time>
      </trkpt>
      <trkpt lat="43.51512" lon="5.58783">
        <ele>450</ele>
        <time>2020-02-18T13:27:32Z</time>
      </trkpt>
      <trkpt lat="43.5151" lon="5.58796">
        <ele>450</ele>
        <time>2020-02-18T13:27:44Z</time>
      </trkpt>
      <trkpt lat="43.5151" lon="5.58808">
        <ele>451</ele>
        <time>2020-02-18T13:27:53Z</time>
      </trkpt>
      <trkpt lat="43.5151" lon="5.58822">
        <ele>453</ele>
        <time>2020-02-18T13:28:04Z</time>
      </trkpt>
      <trkpt lat="43.51512" lon="5.58836">
        <ele>453</ele>
        <time>2020-02-18T13:28:13Z</time>
      </trkpt>
      <trkpt lat="43.51509" lon="5.58849">
        <ele>452</ele>
        <time>2020-02-18T13:28:24Z</time>
      </trkpt>
      <trkpt lat="43.51508" lon="5.58862">
        <ele>455</ele>
        <time>2020-02-18T13:28:34Z</time>
      </trkpt>
      <trkpt lat="43.51504" lon="5.58872">
        <ele>457</ele>
        <time>2020-02-18T13:28:44Z</time>
      </trkpt>
      <trkpt lat="43.51499" lon="5.58883">
        <ele>457</ele>
        <time>2020-02-18T13:28:54Z</time>
      </trkpt>
      <trkpt lat="43.51497" lon="5.58896">
        <ele>458</ele>
        <time>2020-02-18T13:29:07Z</time>
      </trkpt>
      <trkpt lat="43.51491" lon="5.58906">
        <ele>463</ele>
        <time>2020-02-18T13:30:29Z</time>
      </trkpt>
      <trkpt lat="43.51486" lon="5.58916">
        <ele>464</ele>
        <time>2020-02-18T13:30:42Z</time>
      </trkpt>
      <trkpt lat="43.5148" lon="5.58926">
        <ele>465</ele>
        <time>2020-02-18T13:30:55Z</time>
      </trkpt>
      <trkpt lat="43.51474" lon="5.58936">
        <ele>465</ele>
        <time>2020-02-18T13:31:05Z</time>
      </trkpt>
      <trkpt lat="43.51469" lon="5.58948">
        <ele>465</ele>
        <time>2020-02-18T13:31:15Z</time>
      </trkpt>
      <trkpt lat="43.51465" lon="5.58961">
        <ele>464</ele>
        <time>2020-02-18T13:31:25Z</time>
      </trkpt>
      <trkpt lat="43.51462" lon="5.58973">
        <ele>463</ele>
        <time>2020-02-18T13:32:04Z</time>
      </trkpt>
      <trkpt lat="43.51457" lon="5.58985">
        <ele>465</ele>
        <time>2020-02-18T13:32:13Z</time>
      </trkpt>
      <trkpt lat="43.51451" lon="5.58997">
        <ele>467</ele>
        <time>2020-02-18T13:32:24Z</time>
      </trkpt>
      <trkpt lat="43.51445" lon="5.59008">
        <ele>469</ele>
        <time>2020-02-18T13:32:36Z</time>
      </trkpt>
      <trkpt lat="43.51443" lon="5.5902">
        <ele>471</ele>
        <time>2020-02-18T13:32:45Z</time>
      </trkpt>
      <trkpt lat="43.5144" lon="5.59033">
        <ele>472</ele>
        <time>2020-02-18T13:32:57Z</time>
      </trkpt>
      <trkpt lat="43.51433" lon="5.59042">
        <ele>473</ele>
        <time>2020-02-18T13:33:07Z</time>
      </trkpt>
      <trkpt lat="43.51432" lon="5.59056">
        <ele>473</ele>
        <time>2020-02-18T13:33:18Z</time>
      </trkpt>
      <trkpt lat="43.51431" lon="5.59068">
        <ele>470</ele>
        <time>2020-02-18T13:33:42Z</time>
      </trkpt>
      <trkpt lat="43.51429" lon="5.59082">
        <ele>472</ele>
        <time>2020-02-18T13:34:01Z</time>
      </trkpt>
      <trkpt lat="43.51424" lon="5.59093">
        <ele>473</ele>
        <time>2020-02-18T13:34:29Z</time>
      </trkpt>
      <trkpt lat="43.51421" lon="5.59105">
        <ele>474</ele>
        <time>2020-02-18T13:34:41Z</time>
      </trkpt>
      <trkpt lat="43.51415" lon="5.59115">
        <ele>475</ele>
        <time>2020-02-18T13:34:55Z</time>
      </trkpt>
      <trkpt lat="43.51414" lon="5.59128">
        <ele>472</ele>
        <time>2020-02-18T13:35:08Z</time>
      </trkpt>
      <trkpt lat="43.51406" lon="5.59136">
        <ele>475</ele>
        <time>2020-02-18T13:35:22Z</time>
      </trkpt>
      <trkpt lat="43.51399" lon="5.59144">
        <ele>478</ele>
        <time>2020-02-18T13:35:32Z</time>
      </trkpt>
      <trkpt lat="43.51392" lon="5.59153">
        <ele>478</ele>
        <time>2020-02-18T13:35:41Z</time>
      </trkpt>
      <trkpt lat="43.51386" lon="5.59164">
        <ele>476</ele>
        <time>2020-02-18T13:35:51Z</time>
      </trkpt>
      <trkpt lat="43.51379" lon="5.59174">
        <ele>479</ele>
        <time>2020-02-18T13:36:00Z</time>
      </trkpt>
      <trkpt lat="43.51373" lon="5.59185">
        <ele>478</ele>
        <time>2020-02-18T13:36:11Z</time>
      </trkpt>
      <trkpt lat="43.51368" lon="5.59196">
        <ele>480</ele>
        <time>2020-02-18T13:36:23Z</time>
      </trkpt>
      <trkpt lat="43.51364" lon="5.59207">
        <ele>480</ele>
        <time>2020-02-18T13:38:00Z</time>
      </trkpt>
      <trkpt lat="43.51359" lon="5.59218">
        <ele>481</ele>
        <time>2020-02-18T13:38:12Z</time>
      </trkpt>
      <trkpt lat="43.51355" lon="5.59229">
        <ele>480</ele>
        <time>2020-02-18T13:38:23Z</time>
      </trkpt>
      <trkpt lat="43.5135" lon="5.5924">
        <ele>482</ele>
        <time>2020-02-18T13:38:33Z</time>
      </trkpt>
      <trkpt lat="43.51347" lon="5.59252">
        <ele>483</ele>
        <time>2020-02-18T13:38:44Z</time>
      </trkpt>
      <trkpt lat="43.51346" lon="5.59266">
        <ele>481</ele>
        <time>2020-02-18T13:38:53Z</time>
      </trkpt>
      <trkpt lat="43.51342" lon="5.59278">
        <ele>482</ele>
        <time>2020-02-18T13:39:05Z</time>
      </trkpt>
      <trkpt lat="43.51338" lon="5.5929">
        <ele>482</ele>
        <time>2020-02-18T13:39:13Z</time>
      </trkpt>
      <trkpt lat="43.51337" lon="5.59303">
        <ele>482</ele>
        <time>2020-02-18T13:39:23Z</time>
      </trkpt>
      <trkpt lat="43.51334" lon="5.59316">
        <ele>481</ele>
        <time>2020-02-18T13:39:34Z</time>
      </trkpt>
      <trkpt lat="43.51333" lon="5.59329">
        <ele>482</ele>
        <time>2020-02-18T13:39:45Z</time>
      </trkpt>
      <trkpt lat="43.51333" lon="5.59343">
        <ele>484</ele>
        <time>2020-02-18T13:39:56Z</time>
      </trkpt>
      <trkpt lat="43.51335" lon="5.59355">
        <ele>484</ele>
        <time>2020-02-18T13:40:59Z</time>
      </trkpt>
      <trkpt lat="43.51333" lon="5.59368">
        <ele>485</ele>
        <time>2020-02-18T13:41:08Z</time>
      </trkpt>
      <trkpt lat="43.51334" lon="5.59381">
        <ele>489</ele>
        <time>2020-02-18T13:41:19Z</time>
      </trkpt>
      <trkpt lat="43.51334" lon="5.59394">
        <ele>489</ele>
        <time>2020-02-18T13:41:29Z</time>
      </trkpt>
      <trkpt lat="43.51333" lon="5.59406">
        <ele>486</ele>
        <time>2020-02-18T13:41:41Z</time>
      </trkpt>
      <trkpt lat="43.51331" lon="5.59419">
        <ele>490</ele>
        <time>2020-02-18T13:41:53Z</time>
      </trkpt>
      <trkpt lat="43.5133" lon="5.59432">
        <ele>493</ele>
        <time>2020-02-18T13:42:03Z</time>
      </trkpt>
      <trkpt lat="43.51328" lon="5.59445">
        <ele>494</ele>
        <time>2020-02-18T13:42:28Z</time>
      </trkpt>
      <trkpt lat="43.51327" lon="5.59457">
        <ele>495</ele>
        <time>2020-02-18T13:42:57Z</time>
      </trkpt>
      <trkpt lat="43.51326" lon="5.5947">
        <ele>493</ele>
        <time>2020-02-18T13:43:11Z</time>
      </trkpt>
      <trkpt lat="43.51323" lon="5.59482">
        <ele>494</ele>
        <time>2020-02-18T13:43:24Z</time>
      </trkpt>
      <trkpt lat="43.51321" lon="5.59494">
        <ele>497</ele>
        <time>2020-02-18T13:44:44Z</time>
      </trkpt>
      <trkpt lat="43.51317" lon="5.59506">
        <ele>498</ele>
        <time>2020-02-18T13:44:54Z</time>
      </trkpt>
      <trkpt lat="43.51315" lon="5.5952">
        <ele>497</ele>
        <time>2020-02-18T13:45:12Z</time>
      </trkpt>
      <trkpt lat="43.51314" lon="5.59533">
        <ele>500</ele>
        <time>2020-02-18T13:45:41Z</time>
      </trkpt>
      <trkpt lat="43.51312" lon="5.59548">
        <ele>498</ele>
        <time>2020-02-18T13:45:53Z</time>
      </trkpt>
      <trkpt lat="43.5131" lon="5.59562">
        <ele>501</ele>
        <time>2020-02-18T13:46:04Z</time>
      </trkpt>
      <trkpt lat="43.51307" lon="5.59574">
        <ele>503</ele>
        <time>2020-02-18T13:46:16Z</time>
      </trkpt>
      <trkpt lat="43.513" lon="5.59584">
        <ele>503</ele>
        <time>2020-02-18T13:46:39Z</time>
      </trkpt>
      <trkpt lat="43.51294" lon="5.59594">
        <ele>504</ele>
        <time>2020-02-18T13:46:49Z</time>
      </trkpt>
      <trkpt lat="43.51288" lon="5.59603">
        <ele>506</ele>
        <time>2020-02-18T13:47:00Z</time>
      </trkpt>
      <trkpt lat="43.51283" lon="5.59615">
        <ele>506</ele>
        <time>2020-02-18T13:47:10Z</time>
      </trkpt>
      <trkpt lat="43.51277" lon="5.59626">
        <ele>507</ele>
        <time>2020-02-18T13:47:20Z</time>
      </trkpt>
      <trkpt lat="43.51272" lon="5.59637">
        <ele>505</ele>
        <time>2020-02-18T13:47:29Z</time>
      </trkpt>
      <trkpt lat="43.51268" lon="5.59649">
        <ele>507</ele>
        <time>2020-02-18T13:47:39Z</time>
      </trkpt>
      <trkpt lat="43.51263" lon="5.59662">
        <ele>508</ele>
        <time>2020-02-18T13:47:49Z</time>
      </trkpt>
      <trkpt lat="43.51259" lon="5.59673">
        <ele>509</ele>
        <time>2020-02-18T13:47:59Z</time>
      </trkpt>
      <trkpt lat="43.51253" lon="5.59684">
        <ele>508</ele>
        <time>2020-02-18T13:48:08Z</time>
      </trkpt>
      <trkpt lat="43.51249" lon="5.59695">
        <ele>509</ele>
        <time>2020-02-18T13:48:17Z</time>
      </trkpt>
      <trkpt lat="43.51242" lon="5.59704">
        <ele>509</ele>
        <time>2020-02-18T13:48:26Z</time>
      </trkpt>
      <trkpt lat="43.51236" lon="5.59714">
        <ele>509</ele>
        <time>2020-02-18T13:48:36Z</time>
      </trkpt>
      <trkpt lat="43.51228" lon="5.59722">
        <ele>509</ele>
        <time>2020-02-18T13:48:45Z</time>
      </trkpt>
      <trkpt lat="43.51221" lon="5.5973">
        <ele>511</ele>
        <time>2020-02-18T13:48:54Z</time>
      </trkpt>
      <trkpt lat="43.51214" lon="5.59739">
        <ele>513</ele>
        <time>2020-02-18T13:49:06Z</time>
      </trkpt>
      <trkpt lat="43.51206" lon="5.59746">
        <ele>513</ele>
        <time>2020-02-18T13:49:15Z</time>
      </trkpt>
      <trkpt lat="43.51199" lon="5.59754">
        <ele>512</ele>
        <time>2020-02-18T13:49:25Z</time>
      </trkpt>
      <trkpt lat="43.51191" lon="5.5976">
        <ele>513</ele>
        <time>2020-02-18T13:49:35Z</time>
      </trkpt>
      <trkpt lat="43.51183" lon="5.59769">
        <ele>514</ele>
        <time>2020-02-18T13:49:46Z</time>
      </trkpt>
      <trkpt lat="43.51176" lon="5.59779">
        <ele>515</ele>
        <time>2020-02-18T13:49:58Z</time>
      </trkpt>
      <trkpt lat="43.51169" lon="5.59786">
        <ele>517</ele>
        <time>2020-02-18T13:50:37Z</time>
      </trkpt>
      <trkpt lat="43.51161" lon="5.59794">
        <ele>516</ele>
        <time>2020-02-18T13:50:47Z</time>
      </trkpt>
      <trkpt lat="43.51153" lon="5.59802">
        <ele>516</ele>
        <time>2020-02-18T13:50:58Z</time>
      </trkpt>
      <trkpt lat="43.51151" lon="5.59814">
        <ele>518</ele>
        <time>2020-02-18T13:54:50Z</time>
      </trkpt>
      <trkpt lat="43.51159" lon="5.5982">
        <ele>516</ele>
        <time>2020-02-18T13:55:22Z</time>
      </trkpt>
      <trkpt lat="43.51168" lon="5.59824">
        <ele>514</ele>
        <time>2020-02-18T13:55:34Z</time>
      </trkpt>
      <trkpt lat="43.51176" lon="5.59831">
        <ele>514</ele>
        <time>2020-02-18T13:55:43Z</time>
      </trkpt>
      <trkpt lat="43.51184" lon="5.5984">
        <ele>512</ele>
        <time>2020-02-18T13:55:54Z</time>
      </trkpt>
      <trkpt lat="43.51188" lon="5.59851">
        <ele>513</ele>
        <time>2020-02-18T13:56:05Z</time>
      </trkpt>
      <trkpt lat="43.51189" lon="5.59864">
        <ele>514</ele>
        <time>2020-02-18T13:56:13Z</time>
      </trkpt>
      <trkpt lat="43.51192" lon="5.59877">
        <ele>515</ele>
        <time>2020-02-18T13:56:29Z</time>
      </trkpt>
      <trkpt lat="43.51196" lon="5.59889">
        <ele>512</ele>
        <time>2020-02-18T13:56:41Z</time>
      </trkpt>
      <trkpt lat="43.51202" lon="5.599">
        <ele>512</ele>
        <time>2020-02-18T13:56:50Z</time>
      </trkpt>
      <trkpt lat="43.51207" lon="5.59911">
        <ele>510</ele>
        <time>2020-02-18T13:57:00Z</time>
      </trkpt>
      <trkpt lat="43.51213" lon="5.59921">
        <ele>511</ele>
        <time>2020-02-18T13:57:08Z</time>
      </trkpt>
      <trkpt lat="43.5122" lon="5.59932">
        <ele>511</ele>
        <time>2020-02-18T13:57:18Z</time>
      </trkpt>
      <trkpt lat="43.51226" lon="5.59941">
        <ele>511</ele>
        <time>2020-02-18T13:57:27Z</time>
      </trkpt>
      <trkpt lat="43.51232" lon="5.5995">
        <ele>511</ele>
        <time>2020-02-18T13:57:38Z</time>
      </trkpt>
      <trkpt lat="43.51236" lon="5.59963">
        <ele>513</ele>
        <time>2020-02-18T13:57:49Z</time>
      </trkpt>
      <trkpt lat="43.5124" lon="5.59975">
        <ele>515</ele>
        <time>2020-02-18T13:57:59Z</time>
      </trkpt>
      <trkpt lat="43.51243" lon="5.59988">
        <ele>516</ele>
        <time>2020-02-18T13:58:10Z</time>
      </trkpt>
      <trkpt lat="43.51246" lon="5.6">
        <ele>516</ele>
        <time>2020-02-18T13:58:20Z</time>
      </trkpt>
      <trkpt lat="43.51248" lon="5.60014">
        <ele>515</ele>
        <time>2020-02-18T13:58:30Z</time>
      </trkpt>
      <trkpt lat="43.51247" lon="5.60026">
        <ele>516</ele>
        <time>2020-02-18T13:58:39Z</time>
      </trkpt>
      <trkpt lat="43.51243" lon="5.60038">
        <ele>516</ele>
        <time>2020-02-18T13:58:49Z</time>
      </trkpt>
      <trkpt lat="43.51238" lon="5.60048">
        <ele>517</ele>
        <time>2020-02-18T13:58:59Z</time>
      </trkpt>
      <trkpt lat="43.51232" lon="5.60058">
        <ele>519</ele>
        <time>2020-02-18T13:59:08Z</time>
      </trkpt>
      <trkpt lat="43.51227" lon="5.60068">
        <ele>519</ele>
        <time>2020-02-18T13:59:17Z</time>
      </trkpt>
      <trkpt lat="43.51225" lon="5.60082">
        <ele>520</ele>
        <time>2020-02-18T13:59:27Z</time>
      </trkpt>
      <trkpt lat="43.51225" lon="5.60094">
        <ele>519</ele>
        <time>2020-02-18T13:59:36Z</time>
      </trkpt>
      <trkpt lat="43.51222" lon="5.60107">
        <ele>521</ele>
        <time>2020-02-18T13:59:47Z</time>
      </trkpt>
      <trkpt lat="43.51215" lon="5.60116">
        <ele>522</ele>
        <time>2020-02-18T13:59:57Z</time>
      </trkpt>
      <trkpt lat="43.51208" lon="5.60124">
        <ele>524</ele>
        <time>2020-02-18T14:00:06Z</time>
      </trkpt>
      <trkpt lat="43.51202" lon="5.60133">
        <ele>524</ele>
        <time>2020-02-18T14:00:15Z</time>
      </trkpt>
      <trkpt lat="43.51197" lon="5.60144">
        <ele>523</ele>
        <time>2020-02-18T14:00:24Z</time>
      </trkpt>
      <trkpt lat="43.51196" lon="5.60156">
        <ele>523</ele>
        <time>2020-02-18T14:00:33Z</time>
      </trkpt>
      <trkpt lat="43.51196" lon="5.60169">
        <ele>523</ele>
        <time>2020-02-18T14:00:43Z</time>
      </trkpt>
      <trkpt lat="43.51198" lon="5.60181">
        <ele>522</ele>
        <time>2020-02-18T14:00:53Z</time>
      </trkpt>
      <trkpt lat="43.51196" lon="5.60193">
        <ele>522</ele>
        <time>2020-02-18T14:01:01Z</time>
      </trkpt>
      <trkpt lat="43.51192" lon="5.60205">
        <ele>523</ele>
        <time>2020-02-18T14:01:11Z</time>
      </trkpt>
      <trkpt lat="43.51188" lon="5.60217">
        <ele>521</ele>
        <time>2020-02-18T14:01:21Z</time>
      </trkpt>
      <trkpt lat="43.51186" lon="5.6023">
        <ele>521</ele>
        <time>2020-02-18T14:01:31Z</time>
      </trkpt>
      <trkpt lat="43.51186" lon="5.60243">
        <ele>521</ele>
        <time>2020-02-18T14:01:41Z</time>
      </trkpt>
      <trkpt lat="43.51186" lon="5.60257">
        <ele>521</ele>
        <time>2020-02-18T14:01:50Z</time>
      </trkpt>
      <trkpt lat="43.51186" lon="5.6027">
        <ele>521</ele>
        <time>2020-02-18T14:02:00Z</time>
      </trkpt>
      <trkpt lat="43.51184" lon="5.60283">
        <ele>519</ele>
        <time>2020-02-18T14:02:10Z</time>
      </trkpt>
      <trkpt lat="43.51181" lon="5.60295">
        <ele>521</ele>
        <time>2020-02-18T14:02:20Z</time>
      </trkpt>
      <trkpt lat="43.51178" lon="5.60307">
        <ele>521</ele>
        <time>2020-02-18T14:02:28Z</time>
      </trkpt>
      <trkpt lat="43.51173" lon="5.60318">
        <ele>522</ele>
        <time>2020-02-18T14:02:37Z</time>
      </trkpt>
      <trkpt lat="43.51169" lon="5.60331">
        <ele>522</ele>
        <time>2020-02-18T14:02:46Z</time>
      </trkpt>
      <trkpt lat="43.51165" lon="5.60343">
        <ele>522</ele>
        <time>2020-02-18T14:02:56Z</time>
      </trkpt>
      <trkpt lat="43.51163" lon="5.60356">
        <ele>521</ele>
        <time>2020-02-18T14:03:06Z</time>
      </trkpt>
      <trkpt lat="43.51161" lon="5.60369">
        <ele>521</ele>
        <time>2020-02-18T14:03:16Z</time>
      </trkpt>
      <trkpt lat="43.51162" lon="5.60382">
        <ele>521</ele>
        <time>2020-02-18T14:03:25Z</time>
      </trkpt>
      <trkpt lat="43.51162" lon="5.60395">
        <ele>521</ele>
        <time>2020-02-18T14:03:34Z</time>
      </trkpt>
      <trkpt lat="43.51161" lon="5.60408">
        <ele>522</ele>
        <time>2020-02-18T14:03:42Z</time>
      </trkpt>
      <trkpt lat="43.5116" lon="5.60421">
        <ele>521</ele>
        <time>2020-02-18T14:03:51Z</time>
      </trkpt>
      <trkpt lat="43.51159" lon="5.60434">
        <ele>522</ele>
        <time>2020-02-18T14:04:00Z</time>
      </trkpt>
      <trkpt lat="43.51159" lon="5.60448">
        <ele>520</ele>
        <time>2020-02-18T14:04:09Z</time>
      </trkpt>
      <trkpt lat="43.51161" lon="5.6046">
        <ele>520</ele>
        <time>2020-02-18T14:04:19Z</time>
      </trkpt>
      <trkpt lat="43.51161" lon="5.60474">
        <ele>520</ele>
        <time>2020-02-18T14:04:28Z</time>
      </trkpt>
      <trkpt lat="43.51161" lon="5.60487">
        <ele>519</ele>
        <time>2020-02-18T14:04:37Z</time>
      </trkpt>
      <trkpt lat="43.51158" lon="5.605">
        <ele>520</ele>
        <time>2020-02-18T14:04:47Z</time>
      </trkpt>
      <trkpt lat="43.51154" lon="5.60514">
        <ele>520</ele>
        <time>2020-02-18T14:04:57Z</time>
      </trkpt>
      <trkpt lat="43.51151" lon="5.60527">
        <ele>520</ele>
        <time>2020-02-18T14:05:07Z</time>
      </trkpt>
      <trkpt lat="43.51148" lon="5.60539">
        <ele>521</ele>
        <time>2020-02-18T14:05:17Z</time>
      </trkpt>
      <trkpt lat="43.51145" lon="5.60551">
        <ele>519</ele>
        <time>2020-02-18T14:05:26Z</time>
      </trkpt>
      <trkpt lat="43.51143" lon="5.60563">
        <ele>519</ele>
        <time>2020-02-18T14:05:36Z</time>
      </trkpt>
      <trkpt lat="43.51139" lon="5.60575">
        <ele>519</ele>
        <time>2020-02-18T14:05:45Z</time>
      </trkpt>
      <trkpt lat="43.51136" lon="5.60588">
        <ele>520</ele>
        <time>2020-02-18T14:05:54Z</time>
      </trkpt>
      <trkpt lat="43.51133" lon="5.606">
        <ele>522</ele>
        <time>2020-02-18T14:06:03Z</time>
      </trkpt>
      <trkpt lat="43.51129" lon="5.60612">
        <ele>521</ele>
        <time>2020-02-18T14:06:12Z</time>
      </trkpt>
      <trkpt lat="43.51126" lon="5.60625">
        <ele>522</ele>
        <time>2020-02-18T14:06:21Z</time>
      </trkpt>
      <trkpt lat="43.51124" lon="5.60637">
        <ele>523</ele>
        <time>2020-02-18T14:06:30Z</time>
      </trkpt>
      <trkpt lat="43.51123" lon="5.60651">
        <ele>523</ele>
        <time>2020-02-18T14:06:39Z</time>
      </trkpt>
      <trkpt lat="43.51122" lon="5.60663">
        <ele>523</ele>
        <time>2020-02-18T14:06:51Z</time>
      </trkpt>
      <trkpt lat="43.51123" lon="5.60676">
        <ele>519</ele>
        <time>2020-02-18T14:07:27Z</time>
      </trkpt>
      <trkpt lat="43.51125" lon="5.60689">
        <ele>520</ele>
        <time>2020-02-18T14:07:37Z</time>
      </trkpt>
      <trkpt lat="43.51127" lon="5.60701">
        <ele>520</ele>
        <time>2020-02-18T14:07:46Z</time>
      </trkpt>
      <trkpt lat="43.51129" lon="5.60713">
        <ele>520</ele>
        <time>2020-02-18T14:07:55Z</time>
      </trkpt>
      <trkpt lat="43.5113" lon="5.60727">
        <ele>519</ele>
        <time>2020-02-18T14:08:04Z</time>
      </trkpt>
      <trkpt lat="43.51129" lon="5.60739">
        <ele>517</ele>
        <time>2020-02-18T14:08:15Z</time>
      </trkpt>
      <trkpt lat="43.5113" lon="5.60752">
        <ele>517</ele>
        <time>2020-02-18T14:08:24Z</time>
      </trkpt>
      <trkpt lat="43.51128" lon="5.60765">
        <ele>517</ele>
        <time>2020-02-18T14:08:33Z</time>
      </trkpt>
      <trkpt lat="43.51126" lon="5.60778">
        <ele>516</ele>
        <time>2020-02-18T14:08:43Z</time>
      </trkpt>
      <trkpt lat="43.51124" lon="5.60791">
        <ele>516</ele>
        <time>2020-02-18T14:08:52Z</time>
      </trkpt>
      <trkpt lat="43.51121" lon="5.60803">
        <ele>516</ele>
        <time>2020-02-18T14:09:00Z</time>
      </trkpt>
      <trkpt lat="43.51118" lon="5.60815">
        <ele>516</ele>
        <time>2020-02-18T14:09:09Z</time>
      </trkpt>
      <trkpt lat="43.51115" lon="5.60827">
        <ele>514</ele>
        <time>2020-02-18T14:09:18Z</time>
      </trkpt>
      <trkpt lat="43.51114" lon="5.6084">
        <ele>513</ele>
        <time>2020-02-18T14:09:28Z</time>
      </trkpt>
      <trkpt lat="43.51112" lon="5.60853">
        <ele>513</ele>
        <time>2020-02-18T14:09:37Z</time>
      </trkpt>
      <trkpt lat="43.51112" lon="5.60867">
        <ele>512</ele>
        <time>2020-02-18T14:09:47Z</time>
      </trkpt>
      <trkpt lat="43.51112" lon="5.6088">
        <ele>514</ele>
        <time>2020-02-18T14:09:58Z</time>
      </trkpt>
      <trkpt lat="43.5111" lon="5.60893">
        <ele>517</ele>
        <time>2020-02-18T14:10:10Z</time>
      </trkpt>
      <trkpt lat="43.51109" lon="5.60905">
        <ele>516</ele>
        <time>2020-02-18T14:10:21Z</time>
      </trkpt>
      <trkpt lat="43.51109" lon="5.60918">
        <ele>514</ele>
        <time>2020-02-18T14:10:33Z</time>
      </trkpt>
      <trkpt lat="43.51113" lon="5.6093">
        <ele>512</ele>
        <time>2020-02-18T14:10:44Z</time>
      </trkpt>
      <trkpt lat="43.51117" lon="5.60942">
        <ele>513</ele>
        <time>2020-02-18T14:10:55Z</time>
      </trkpt>
      <trkpt lat="43.5112" lon="5.60953">
        <ele>512</ele>
        <time>2020-02-18T14:11:06Z</time>
      </trkpt>
      <trkpt lat="43.51126" lon="5.60964">
        <ele>511</ele>
        <time>2020-02-18T14:11:17Z</time>
      </trkpt>
      <trkpt lat="43.51131" lon="5.60975">
        <ele>510</ele>
        <time>2020-02-18T14:11:27Z</time>
      </trkpt>
      <trkpt lat="43.51137" lon="5.60987">
        <ele>510</ele>
        <time>2020-02-18T14:11:37Z</time>
      </trkpt>
      <trkpt lat="43.51141" lon="5.60999">
        <ele>510</ele>
        <time>2020-02-18T14:11:48Z</time>
      </trkpt>
      <trkpt lat="43.51145" lon="5.61011">
        <ele>511</ele>
        <time>2020-02-18T14:12:00Z</time>
      </trkpt>
      <trkpt lat="43.51149" lon="5.61022">
        <ele>508</ele>
        <time>2020-02-18T14:12:13Z</time>
      </trkpt>
      <trkpt lat="43.5115" lon="5.61038">
        <ele>504</ele>
        <time>2020-02-18T14:12:36Z</time>
      </trkpt>
      <trkpt lat="43.51153" lon="5.61049">
        <ele>503</ele>
        <time>2020-02-18T14:12:53Z</time>
      </trkpt>
      <trkpt lat="43.51155" lon="5.61063">
        <ele>500</ele>
        <time>2020-02-18T14:13:04Z</time>
      </trkpt>
      <trkpt lat="43.51157" lon="5.61075">
        <ele>500</ele>
        <time>2020-02-18T14:13:17Z</time>
      </trkpt>
      <trkpt lat="43.51167" lon="5.61075">
        <ele>500</ele>
        <time>2020-02-18T14:13:31Z</time>
      </trkpt>
      <trkpt lat="43.51175" lon="5.61067">
        <ele>501</ele>
        <time>2020-02-18T14:13:44Z</time>
      </trkpt>
      <trkpt lat="43.51182" lon="5.6106">
        <ele>501</ele>
        <time>2020-02-18T14:13:53Z</time>
      </trkpt>
      <trkpt lat="43.51191" lon="5.61053">
        <ele>501</ele>
        <time>2020-02-18T14:14:02Z</time>
      </trkpt>
      <trkpt lat="43.51196" lon="5.61042">
        <ele>501</ele>
        <time>2020-02-18T14:14:11Z</time>
      </trkpt>
      <trkpt lat="43.51203" lon="5.61032">
        <ele>500</ele>
        <time>2020-02-18T14:14:20Z</time>
      </trkpt>
      <trkpt lat="43.51207" lon="5.6102">
        <ele>499</ele>
        <time>2020-02-18T14:14:30Z</time>
      </trkpt>
      <trkpt lat="43.51205" lon="5.61007">
        <ele>497</ele>
        <time>2020-02-18T14:14:42Z</time>
      </trkpt>
      <trkpt lat="43.51208" lon="5.60995">
        <ele>498</ele>
        <time>2020-02-18T14:14:52Z</time>
      </trkpt>
      <trkpt lat="43.51212" lon="5.60983">
        <ele>499</ele>
        <time>2020-02-18T14:15:57Z</time>
      </trkpt>
      <trkpt lat="43.51214" lon="5.6097">
        <ele>500</ele>
        <time>2020-02-18T14:16:06Z</time>
      </trkpt>
      <trkpt lat="43.51218" lon="5.60958">
        <ele>502</ele>
        <time>2020-02-18T14:16:17Z</time>
      </trkpt>
      <trkpt lat="43.5122" lon="5.60945">
        <ele>502</ele>
        <time>2020-02-18T14:16:30Z</time>
      </trkpt>
      <trkpt lat="43.51222" lon="5.60933">
        <ele>503</ele>
        <time>2020-02-18T14:17:05Z</time>
      </trkpt>
      <trkpt lat="43.51224" lon="5.6092">
        <ele>503</ele>
        <time>2020-02-18T14:17:39Z</time>
      </trkpt>
      <trkpt lat="43.51226" lon="5.60907">
        <ele>498</ele>
        <time>2020-02-18T14:17:58Z</time>
      </trkpt>
      <trkpt lat="43.51229" lon="5.60894">
        <ele>497</ele>
        <time>2020-02-18T14:18:07Z</time>
      </trkpt>
      <trkpt lat="43.51226" lon="5.60907">
        <ele>501</ele>
        <time>2020-02-18T14:19:08Z</time>
      </trkpt>
      <trkpt lat="43.51222" lon="5.6092">
        <ele>502</ele>
        <time>2020-02-18T14:19:20Z</time>
      </trkpt>
      <trkpt lat="43.5122" lon="5.60933">
        <ele>502</ele>
        <time>2020-02-18T14:19:29Z</time>
      </trkpt>
      <trkpt lat="43.51224" lon="5.60921">
        <ele>499</ele>
        <time>2020-02-18T14:22:07Z</time>
      </trkpt>
      <trkpt lat="43.51227" lon="5.60907">
        <ele>499</ele>
        <time>2020-02-18T14:22:18Z</time>
      </trkpt>
      <trkpt lat="43.51229" lon="5.60895">
        <ele>499</ele>
        <time>2020-02-18T14:22:26Z</time>
      </trkpt>
      <trkpt lat="43.5123" lon="5.60882">
        <ele>498</ele>
        <time>2020-02-18T14:22:35Z</time>
      </trkpt>
      <trkpt lat="43.51229" lon="5.60869">
        <ele>499</ele>
        <time>2020-02-18T14:22:44Z</time>
      </trkpt>
      <trkpt lat="43.51229" lon="5.60857">
        <ele>499</ele>
        <time>2020-02-18T14:22:53Z</time>
      </trkpt>
      <trkpt lat="43.5123" lon="5.60844">
        <ele>498</ele>
        <time>2020-02-18T14:23:02Z</time>
      </trkpt>
      <trkpt lat="43.51231" lon="5.60831">
        <ele>497</ele>
        <time>2020-02-18T14:23:11Z</time>
      </trkpt>
      <trkpt lat="43.51233" lon="5.60819">
        <ele>497</ele>
        <time>2020-02-18T14:23:20Z</time>
      </trkpt>
      <trkpt lat="43.51235" lon="5.60806">
        <ele>498</ele>
        <time>2020-02-18T14:23:29Z</time>
      </trkpt>
      <trkpt lat="43.51235" lon="5.60793">
        <ele>498</ele>
        <time>2020-02-18T14:23:38Z</time>
      </trkpt>
      <trkpt lat="43.51236" lon="5.6078">
        <ele>499</ele>
        <time>2020-02-18T14:23:47Z</time>
      </trkpt>
      <trkpt lat="43.51239" lon="5.60767">
        <ele>499</ele>
        <time>2020-02-18T14:23:56Z</time>
      </trkpt>
      <trkpt lat="43.5124" lon="5.60754">
        <ele>500</ele>
        <time>2020-02-18T14:24:04Z</time>
      </trkpt>
      <trkpt lat="43.51241" lon="5.60741">
        <ele>500</ele>
        <time>2020-02-18T14:24:13Z</time>
      </trkpt>
      <trkpt lat="43.51241" lon="5.60727">
        <ele>499</ele>
        <time>2020-02-18T14:24:23Z</time>
      </trkpt>
      <trkpt lat="43.51244" lon="5.60715">
        <ele>500</ele>
        <time>2020-02-18T14:24:32Z</time>
      </trkpt>
      <trkpt lat="43.51247" lon="5.60703">
        <ele>501</ele>
        <time>2020-02-18T14:24:41Z</time>
      </trkpt>
      <trkpt lat="43.51247" lon="5.6069">
        <ele>500</ele>
        <time>2020-02-18T14:24:50Z</time>
      </trkpt>
      <trkpt lat="43.51247" lon="5.60677">
        <ele>499</ele>
        <time>2020-02-18T14:24:58Z</time>
      </trkpt>
      <trkpt lat="43.51248" lon="5.60663">
        <ele>501</ele>
        <time>2020-02-18T14:25:08Z</time>
      </trkpt>
      <trkpt lat="43.5125" lon="5.6065">
        <ele>501</ele>
        <time>2020-02-18T14:25:17Z</time>
      </trkpt>
      <trkpt lat="43.51251" lon="5.60637">
        <ele>501</ele>
        <time>2020-02-18T14:25:27Z</time>
      </trkpt>
      <trkpt lat="43.51249" lon="5.60624">
        <ele>501</ele>
        <time>2020-02-18T14:25:38Z</time>
      </trkpt>
      <trkpt lat="43.5125" lon="5.60612">
        <ele>501</ele>
        <time>2020-02-18T14:25:47Z</time>
      </trkpt>
      <trkpt lat="43.51251" lon="5.606">
        <ele>503</ele>
        <time>2020-02-18T14:25:57Z</time>
      </trkpt>
      <trkpt lat="43.51251" lon="5.60587">
        <ele>504</ele>
        <time>2020-02-18T14:26:06Z</time>
      </trkpt>
      <trkpt lat="43.51253" lon="5.60574">
        <ele>504</ele>
        <time>2020-02-18T14:26:17Z</time>
      </trkpt>
      <trkpt lat="43.51253" lon="5.60561">
        <ele>504</ele>
        <time>2020-02-18T14:26:27Z</time>
      </trkpt>
      <trkpt lat="43.51256" lon="5.60548">
        <ele>503</ele>
        <time>2020-02-18T14:26:36Z</time>
      </trkpt>
      <trkpt lat="43.51262" lon="5.60537">
        <ele>502</ele>
        <time>2020-02-18T14:26:45Z</time>
      </trkpt>
      <trkpt lat="43.51265" lon="5.60525">
        <ele>504</ele>
        <time>2020-02-18T14:26:54Z</time>
      </trkpt>
      <trkpt lat="43.51267" lon="5.60513">
        <ele>503</ele>
        <time>2020-02-18T14:27:03Z</time>
      </trkpt>
      <trkpt lat="43.51268" lon="5.605">
        <ele>503</ele>
        <time>2020-02-18T14:27:13Z</time>
      </trkpt>
      <trkpt lat="43.51271" lon="5.60487">
        <ele>504</ele>
        <time>2020-02-18T14:27:21Z</time>
      </trkpt>
      <trkpt lat="43.51274" lon="5.60475">
        <ele>504</ele>
        <time>2020-02-18T14:27:31Z</time>
      </trkpt>
      <trkpt lat="43.51272" lon="5.60463">
        <ele>503</ele>
        <time>2020-02-18T14:27:41Z</time>
      </trkpt>
      <trkpt lat="43.51274" lon="5.6045">
        <ele>505</ele>
        <time>2020-02-18T14:27:54Z</time>
      </trkpt>
      <trkpt lat="43.5128" lon="5.60439">
        <ele>503</ele>
        <time>2020-02-18T14:28:03Z</time>
      </trkpt>
      <trkpt lat="43.51282" lon="5.60427">
        <ele>504</ele>
        <time>2020-02-18T14:28:12Z</time>
      </trkpt>
      <trkpt lat="43.51287" lon="5.60415">
        <ele>503</ele>
        <time>2020-02-18T14:28:21Z</time>
      </trkpt>
      <trkpt lat="43.51289" lon="5.60401">
        <ele>505</ele>
        <time>2020-02-18T14:28:31Z</time>
      </trkpt>
      <trkpt lat="43.51293" lon="5.6039">
        <ele>507</ele>
        <time>2020-02-18T14:28:40Z</time>
      </trkpt>
      <trkpt lat="43.51296" lon="5.60376">
        <ele>506</ele>
        <time>2020-02-18T14:28:49Z</time>
      </trkpt>
      <trkpt lat="43.51297" lon="5.60363">
        <ele>507</ele>
        <time>2020-02-18T14:28:58Z</time>
      </trkpt>
      <trkpt lat="43.51296" lon="5.6035">
        <ele>508</ele>
        <time>2020-02-18T14:29:07Z</time>
      </trkpt>
      <trkpt lat="43.51297" lon="5.60337">
        <ele>507</ele>
        <time>2020-02-18T14:29:16Z</time>
      </trkpt>
      <trkpt lat="43.51298" lon="5.60324">
        <ele>507</ele>
        <time>2020-02-18T14:29:25Z</time>
      </trkpt>
      <trkpt lat="43.51301" lon="5.60312">
        <ele>509</ele>
        <time>2020-02-18T14:31:24Z</time>
      </trkpt>
      <trkpt lat="43.51302" lon="5.603">
        <ele>507</ele>
        <time>2020-02-18T14:31:37Z</time>
      </trkpt>
      <trkpt lat="43.51302" lon="5.60287">
        <ele>507</ele>
        <time>2020-02-18T14:31:48Z</time>
      </trkpt>
      <trkpt lat="43.51299" lon="5.60274">
        <ele>508</ele>
        <time>2020-02-18T14:31:57Z</time>
      </trkpt>
      <trkpt lat="43.51299" lon="5.60261">
        <ele>508</ele>
        <time>2020-02-18T14:32:13Z</time>
      </trkpt>
      <trkpt lat="43.51299" lon="5.60248">
        <ele>508</ele>
        <time>2020-02-18T14:32:25Z</time>
      </trkpt>
      <trkpt lat="43.51298" lon="5.60235">
        <ele>509</ele>
        <time>2020-02-18T14:32:37Z</time>
      </trkpt>
      <trkpt lat="43.513" lon="5.60223">
        <ele>510</ele>
        <time>2020-02-18T14:32:48Z</time>
      </trkpt>
      <trkpt lat="43.51302" lon="5.6021">
        <ele>512</ele>
        <time>2020-02-18T14:32:57Z</time>
      </trkpt>
      <trkpt lat="43.51304" lon="5.60198">
        <ele>512</ele>
        <time>2020-02-18T14:33:05Z</time>
      </trkpt>
      <trkpt lat="43.51304" lon="5.60185">
        <ele>512</ele>
        <time>2020-02-18T14:33:16Z</time>
      </trkpt>
      <trkpt lat="43.51306" lon="5.60173">
        <ele>512</ele>
        <time>2020-02-18T14:33:26Z</time>
      </trkpt>
      <trkpt lat="43.51306" lon="5.6016">
        <ele>512</ele>
        <time>2020-02-18T14:33:35Z</time>
      </trkpt>
      <trkpt lat="43.51303" lon="5.60148">
        <ele>510</ele>
        <time>2020-02-18T14:33:48Z</time>
      </trkpt>
      <trkpt lat="43.51299" lon="5.60137">
        <ele>508</ele>
        <time>2020-02-18T14:33:58Z</time>
      </trkpt>
      <trkpt lat="43.51299" lon="5.60124">
        <ele>507</ele>
        <time>2020-02-18T14:34:12Z</time>
      </trkpt>
      <trkpt lat="43.513" lon="5.60112">
        <ele>507</ele>
        <time>2020-02-18T14:34:22Z</time>
      </trkpt>
      <trkpt lat="43.51303" lon="5.601">
        <ele>508</ele>
        <time>2020-02-18T14:34:32Z</time>
      </trkpt>
      <trkpt lat="43.51305" lon="5.60087">
        <ele>507</ele>
        <time>2020-02-18T14:34:41Z</time>
      </trkpt>
      <trkpt lat="43.51306" lon="5.60075">
        <ele>508</ele>
        <time>2020-02-18T14:34:50Z</time>
      </trkpt>
      <trkpt lat="43.51311" lon="5.60064">
        <ele>509</ele>
        <time>2020-02-18T14:34:58Z</time>
      </trkpt>
      <trkpt lat="43.51311" lon="5.6005">
        <ele>507</ele>
        <time>2020-02-18T14:35:09Z</time>
      </trkpt>
      <trkpt lat="43.51309" lon="5.60037">
        <ele>507</ele>
        <time>2020-02-18T14:35:19Z</time>
      </trkpt>
      <trkpt lat="43.51306" lon="5.60025">
        <ele>506</ele>
        <time>2020-02-18T14:35:31Z</time>
      </trkpt>
      <trkpt lat="43.51299" lon="5.60017">
        <ele>505</ele>
        <time>2020-02-18T14:35:40Z</time>
      </trkpt>
      <trkpt lat="43.51291" lon="5.60012">
        <ele>506</ele>
        <time>2020-02-18T14:35:48Z</time>
      </trkpt>
      <trkpt lat="43.51281" lon="5.60009">
        <ele>505</ele>
        <time>2020-02-18T14:36:00Z</time>
      </trkpt>
      <trkpt lat="43.51272" lon="5.60005">
        <ele>505</ele>
        <time>2020-02-18T14:36:11Z</time>
      </trkpt>
      <trkpt lat="43.51265" lon="5.59997">
        <ele>510</ele>
        <time>2020-02-18T14:36:19Z</time>
      </trkpt>
      <trkpt lat="43.51257" lon="5.5999">
        <ele>519</ele>
        <time>2020-02-18T14:36:28Z</time>
      </trkpt>
      <trkpt lat="43.51248" lon="5.59988">
        <ele>520</ele>
        <time>2020-02-18T14:36:47Z</time>
      </trkpt>
      <trkpt lat="43.51243" lon="5.59976">
        <ele>519</ele>
        <time>2020-02-18T14:37:45Z</time>
      </trkpt>
      <trkpt lat="43.5124" lon="5.59964">
        <ele>519</ele>
        <time>2020-02-18T14:37:55Z</time>
      </trkpt>
      <trkpt lat="43.51237" lon="5.59952">
        <ele>517</ele>
        <time>2020-02-18T14:38:20Z</time>
      </trkpt>
      <trkpt lat="43.51232" lon="5.59941">
        <ele>517</ele>
        <time>2020-02-18T14:38:29Z</time>
      </trkpt>
      <trkpt lat="43.51226" lon="5.59931">
        <ele>515</ele>
        <time>2020-02-18T14:38:37Z</time>
      </trkpt>
      <trkpt lat="43.51219" lon="5.59924">
        <ele>514</ele>
        <time>2020-02-18T14:38:46Z</time>
      </trkpt>
      <trkpt lat="43.51212" lon="5.59916">
        <ele>513</ele>
        <time>2020-02-18T14:38:57Z</time>
      </trkpt>
      <trkpt lat="43.51208" lon="5.59904">
        <ele>510</ele>
        <time>2020-02-18T14:39:07Z</time>
      </trkpt>
      <trkpt lat="43.51202" lon="5.59893">
        <ele>509</ele>
        <time>2020-02-18T14:39:16Z</time>
      </trkpt>
      <trkpt lat="43.51199" lon="5.5988">
        <ele>509</ele>
        <time>2020-02-18T14:39:25Z</time>
      </trkpt>
      <trkpt lat="43.51198" lon="5.59868">
        <ele>509</ele>
        <time>2020-02-18T14:39:33Z</time>
      </trkpt>
      <trkpt lat="43.51196" lon="5.59854">
        <ele>510</ele>
        <time>2020-02-18T14:39:42Z</time>
      </trkpt>
      <trkpt lat="43.51191" lon="5.59842">
        <ele>510</ele>
        <time>2020-02-18T14:39:50Z</time>
      </trkpt>
      <trkpt lat="43.51187" lon="5.5983">
        <ele>511</ele>
        <time>2020-02-18T14:39:59Z</time>
      </trkpt>
      <trkpt lat="43.51184" lon="5.59818">
        <ele>511</ele>
        <time>2020-02-18T14:40:10Z</time>
      </trkpt>
      <trkpt lat="43.51184" lon="5.59805">
        <ele>511</ele>
        <time>2020-02-18T14:40:19Z</time>
      </trkpt>
      <trkpt lat="43.51183" lon="5.59792">
        <ele>512</ele>
        <time>2020-02-18T14:40:27Z</time>
      </trkpt>
      <trkpt lat="43.51181" lon="5.5978">
        <ele>512</ele>
        <time>2020-02-18T14:40:38Z</time>
      </trkpt>
      <trkpt lat="43.51188" lon="5.59769">
        <ele>514</ele>
        <time>2020-02-18T14:40:52Z</time>
      </trkpt>
      <trkpt lat="43.51195" lon="5.5976">
        <ele>514</ele>
        <time>2020-02-18T14:41:34Z</time>
      </trkpt>
      <trkpt lat="43.51204" lon="5.59753">
        <ele>510</ele>
        <time>2020-02-18T14:41:44Z</time>
      </trkpt>
      <trkpt lat="43.51212" lon="5.59748">
        <ele>510</ele>
        <time>2020-02-18T14:41:51Z</time>
      </trkpt>
      <trkpt lat="43.51219" lon="5.59739">
        <ele>510</ele>
        <time>2020-02-18T14:41:59Z</time>
      </trkpt>
      <trkpt lat="43.51227" lon="5.59733">
        <ele>509</ele>
        <time>2020-02-18T14:42:07Z</time>
      </trkpt>
      <trkpt lat="43.51234" lon="5.59724">
        <ele>509</ele>
        <time>2020-02-18T14:42:16Z</time>
      </trkpt>
      <trkpt lat="43.51241" lon="5.59716">
        <ele>509</ele>
        <time>2020-02-18T14:42:23Z</time>
      </trkpt>
      <trkpt lat="43.51248" lon="5.59708">
        <ele>510</ele>
        <time>2020-02-18T14:42:30Z</time>
      </trkpt>
      <trkpt lat="43.51252" lon="5.59696">
        <ele>512</ele>
        <time>2020-02-18T14:42:39Z</time>
      </trkpt>
      <trkpt lat="43.51257" lon="5.59685">
        <ele>513</ele>
        <time>2020-02-18T14:42:48Z</time>
      </trkpt>
      <trkpt lat="43.51263" lon="5.59675">
        <ele>513</ele>
        <time>2020-02-18T14:42:56Z</time>
      </trkpt>
      <trkpt lat="43.51269" lon="5.59664">
        <ele>512</ele>
        <time>2020-02-18T14:43:04Z</time>
      </trkpt>
      <trkpt lat="43.51272" lon="5.59652">
        <ele>513</ele>
        <time>2020-02-18T14:43:12Z</time>
      </trkpt>
      <trkpt lat="43.51277" lon="5.59641">
        <ele>512</ele>
        <time>2020-02-18T14:43:20Z</time>
      </trkpt>
      <trkpt lat="43.51282" lon="5.5963">
        <ele>509</ele>
        <time>2020-02-18T14:43:27Z</time>
      </trkpt>
      <trkpt lat="43.51286" lon="5.59619">
        <ele>507</ele>
        <time>2020-02-18T14:43:35Z</time>
      </trkpt>
      <trkpt lat="43.51292" lon="5.59609">
        <ele>506</ele>
        <time>2020-02-18T14:43:43Z</time>
      </trkpt>
      <trkpt lat="43.51297" lon="5.59598">
        <ele>504</ele>
        <time>2020-02-18T14:43:52Z</time>
      </trkpt>
      <trkpt lat="43.51304" lon="5.59588">
        <ele>503</ele>
        <time>2020-02-18T14:44:01Z</time>
      </trkpt>
      <trkpt lat="43.5131" lon="5.59578">
        <ele>501</ele>
        <time>2020-02-18T14:44:10Z</time>
      </trkpt>
      <trkpt lat="43.51313" lon="5.59566">
        <ele>500</ele>
        <time>2020-02-18T14:44:19Z</time>
      </trkpt>
      <trkpt lat="43.51316" lon="5.59553">
        <ele>501</ele>
        <time>2020-02-18T14:44:28Z</time>
      </trkpt>
      <trkpt lat="43.51319" lon="5.5954">
        <ele>501</ele>
        <time>2020-02-18T14:44:36Z</time>
      </trkpt>
      <trkpt lat="43.51321" lon="5.59527">
        <ele>500</ele>
        <time>2020-02-18T14:44:45Z</time>
      </trkpt>
      <trkpt lat="43.51323" lon="5.59514">
        <ele>500</ele>
        <time>2020-02-18T14:44:53Z</time>
      </trkpt>
      <trkpt lat="43.51326" lon="5.59502">
        <ele>500</ele>
        <time>2020-02-18T14:45:02Z</time>
      </trkpt>
      <trkpt lat="43.51327" lon="5.59489">
        <ele>499</ele>
        <time>2020-02-18T14:45:10Z</time>
      </trkpt>
      <trkpt lat="43.51329" lon="5.59477">
        <ele>498</ele>
        <time>2020-02-18T14:45:17Z</time>
      </trkpt>
      <trkpt lat="43.51328" lon="5.59464">
        <ele>496</ele>
        <time>2020-02-18T14:45:26Z</time>
      </trkpt>
      <trkpt lat="43.5133" lon="5.59452">
        <ele>495</ele>
        <time>2020-02-18T14:45:34Z</time>
      </trkpt>
      <trkpt lat="43.51332" lon="5.59438">
        <ele>492</ele>
        <time>2020-02-18T14:45:42Z</time>
      </trkpt>
      <trkpt lat="43.51335" lon="5.59426">
        <ele>490</ele>
        <time>2020-02-18T14:45:50Z</time>
      </trkpt>
      <trkpt lat="43.51336" lon="5.59413">
        <ele>489</ele>
        <time>2020-02-18T14:45:58Z</time>
      </trkpt>
      <trkpt lat="43.51338" lon="5.594">
        <ele>487</ele>
        <time>2020-02-18T14:46:06Z</time>
      </trkpt>
      <trkpt lat="43.5134" lon="5.59386">
        <ele>485</ele>
        <time>2020-02-18T14:46:15Z</time>
      </trkpt>
      <trkpt lat="43.51342" lon="5.59374">
        <ele>484</ele>
        <time>2020-02-18T14:46:22Z</time>
      </trkpt>
      <trkpt lat="43.51344" lon="5.59361">
        <ele>484</ele>
        <time>2020-02-18T14:46:30Z</time>
      </trkpt>
      <trkpt lat="43.51344" lon="5.59348">
        <ele>482</ele>
        <time>2020-02-18T14:46:38Z</time>
      </trkpt>
      <trkpt lat="43.51344" lon="5.59335">
        <ele>481</ele>
        <time>2020-02-18T14:46:48Z</time>
      </trkpt>
      <trkpt lat="43.51345" lon="5.59322">
        <ele>479</ele>
        <time>2020-02-18T14:46:56Z</time>
      </trkpt>
      <trkpt lat="43.51348" lon="5.59309">
        <ele>478</ele>
        <time>2020-02-18T14:47:04Z</time>
      </trkpt>
      <trkpt lat="43.51348" lon="5.59295">
        <ele>477</ele>
        <time>2020-02-18T14:47:13Z</time>
      </trkpt>
      <trkpt lat="43.51352" lon="5.59283">
        <ele>476</ele>
        <time>2020-02-18T14:47:21Z</time>
      </trkpt>
      <trkpt lat="43.51353" lon="5.59271">
        <ele>477</ele>
        <time>2020-02-18T14:47:29Z</time>
      </trkpt>
      <trkpt lat="43.51356" lon="5.59259">
        <ele>478</ele>
        <time>2020-02-18T14:47:37Z</time>
      </trkpt>
      <trkpt lat="43.51357" lon="5.59246">
        <ele>478</ele>
        <time>2020-02-18T14:47:45Z</time>
      </trkpt>
      <trkpt lat="43.51362" lon="5.59235">
        <ele>478</ele>
        <time>2020-02-18T14:47:53Z</time>
      </trkpt>
      <trkpt lat="43.51365" lon="5.59223">
        <ele>477</ele>
        <time>2020-02-18T14:48:02Z</time>
      </trkpt>
      <trkpt lat="43.51368" lon="5.5921">
        <ele>475</ele>
        <time>2020-02-18T14:48:11Z</time>
      </trkpt>
      <trkpt lat="43.51372" lon="5.59199">
        <ele>473</ele>
        <time>2020-02-18T14:48:21Z</time>
      </trkpt>
      <trkpt lat="43.51378" lon="5.59189">
        <ele>473</ele>
        <time>2020-02-18T14:48:30Z</time>
      </trkpt>
      <trkpt lat="43.51384" lon="5.59179">
        <ele>470</ele>
        <time>2020-02-18T14:48:40Z</time>
      </trkpt>
      <trkpt lat="43.51391" lon="5.59171">
        <ele>468</ele>
        <time>2020-02-18T14:48:47Z</time>
      </trkpt>
      <trkpt lat="43.51396" lon="5.59161">
        <ele>465</ele>
        <time>2020-02-18T14:48:54Z</time>
      </trkpt>
      <trkpt lat="43.51402" lon="5.59151">
        <ele>466</ele>
        <time>2020-02-18T14:49:02Z</time>
      </trkpt>
      <trkpt lat="43.51409" lon="5.59142">
        <ele>464</ele>
        <time>2020-02-18T14:49:10Z</time>
      </trkpt>
      <trkpt lat="43.51416" lon="5.59132">
        <ele>465</ele>
        <time>2020-02-18T14:49:18Z</time>
      </trkpt>
      <trkpt lat="43.51424" lon="5.59125">
        <ele>464</ele>
        <time>2020-02-18T14:49:29Z</time>
      </trkpt>
      <trkpt lat="43.51431" lon="5.59116">
        <ele>466</ele>
        <time>2020-02-18T14:49:37Z</time>
      </trkpt>
      <trkpt lat="43.51438" lon="5.59107">
        <ele>464</ele>
        <time>2020-02-18T14:49:44Z</time>
      </trkpt>
      <trkpt lat="43.51442" lon="5.59094">
        <ele>464</ele>
        <time>2020-02-18T14:49:52Z</time>
      </trkpt>
      <trkpt lat="43.51444" lon="5.59081">
        <ele>463</ele>
        <time>2020-02-18T14:50:00Z</time>
      </trkpt>
      <trkpt lat="43.51444" lon="5.59068">
        <ele>463</ele>
        <time>2020-02-18T14:50:08Z</time>
      </trkpt>
      <trkpt lat="43.51448" lon="5.59056">
        <ele>465</ele>
        <time>2020-02-18T14:50:17Z</time>
      </trkpt>
      <trkpt lat="43.51449" lon="5.59043">
        <ele>466</ele>
        <time>2020-02-18T14:51:00Z</time>
      </trkpt>
      <trkpt lat="43.51449" lon="5.5903">
        <ele>465</ele>
        <time>2020-02-18T14:51:08Z</time>
      </trkpt>
      <trkpt lat="43.51451" lon="5.59016">
        <ele>466</ele>
        <time>2020-02-18T14:51:16Z</time>
      </trkpt>
      <trkpt lat="43.51454" lon="5.59003">
        <ele>465</ele>
        <time>2020-02-18T14:51:24Z</time>
      </trkpt>
      <trkpt lat="43.51458" lon="5.58992">
        <ele>465</ele>
        <time>2020-02-18T14:51:34Z</time>
      </trkpt>
      <trkpt lat="43.51464" lon="5.58981">
        <ele>466</ele>
        <time>2020-02-18T14:51:43Z</time>
      </trkpt>
      <trkpt lat="43.51469" lon="5.5897">
        <ele>465</ele>
        <time>2020-02-18T14:51:49Z</time>
      </trkpt>
      <trkpt lat="43.51471" lon="5.58955">
        <ele>464</ele>
        <time>2020-02-18T14:51:57Z</time>
      </trkpt>
      <trkpt lat="43.51475" lon="5.58943">
        <ele>461</ele>
        <time>2020-02-18T14:52:06Z</time>
      </trkpt>
      <trkpt lat="43.51479" lon="5.58932">
        <ele>457</ele>
        <time>2020-02-18T14:52:14Z</time>
      </trkpt>
      <trkpt lat="43.5148" lon="5.58919">
        <ele>458</ele>
        <time>2020-02-18T14:52:23Z</time>
      </trkpt>
      <trkpt lat="43.51485" lon="5.58907">
        <ele>459</ele>
        <time>2020-02-18T14:52:32Z</time>
      </trkpt>
      <trkpt lat="43.5149" lon="5.58896">
        <ele>459</ele>
        <time>2020-02-18T14:52:39Z</time>
      </trkpt>
      <trkpt lat="43.51497" lon="5.58887">
        <ele>457</ele>
        <time>2020-02-18T14:52:47Z</time>
      </trkpt>
      <trkpt lat="43.51503" lon="5.58877">
        <ele>457</ele>
        <time>2020-02-18T14:52:57Z</time>
      </trkpt>
      <trkpt lat="43.51509" lon="5.58866">
        <ele>456</ele>
        <time>2020-02-18T14:53:05Z</time>
      </trkpt>
      <trkpt lat="43.51514" lon="5.58856">
        <ele>456</ele>
        <time>2020-02-18T14:53:12Z</time>
      </trkpt>
      <trkpt lat="43.51516" lon="5.58842">
        <ele>454</ele>
        <time>2020-02-18T14:53:21Z</time>
      </trkpt>
      <trkpt lat="43.51515" lon="5.58828">
        <ele>452</ele>
        <time>2020-02-18T14:53:30Z</time>
      </trkpt>
      <trkpt lat="43.51514" lon="5.58814">
        <ele>452</ele>
        <time>2020-02-18T14:53:39Z</time>
      </trkpt>
      <trkpt lat="43.51515" lon="5.58801">
        <ele>451</ele>
        <time>2020-02-18T14:53:49Z</time>
      </trkpt>
      <trkpt lat="43.51518" lon="5.58787">
        <ele>448</ele>
        <time>2020-02-18T14:53:58Z</time>
      </trkpt>
      <trkpt lat="43.51522" lon="5.58775">
        <ele>448</ele>
        <time>2020-02-18T14:54:05Z</time>
      </trkpt>
      <trkpt lat="43.51522" lon="5.58762">
        <ele>448</ele>
        <time>2020-02-18T14:54:12Z</time>
      </trkpt>
      <trkpt lat="43.51524" lon="5.58749">
        <ele>447</ele>
        <time>2020-02-18T14:54:20Z</time>
      </trkpt>
      <trkpt lat="43.51529" lon="5.58737">
        <ele>447</ele>
        <time>2020-02-18T14:54:27Z</time>
      </trkpt>
      <trkpt lat="43.51533" lon="5.58726">
        <ele>447</ele>
        <time>2020-02-18T14:54:36Z</time>
      </trkpt>
      <trkpt lat="43.51541" lon="5.58718">
        <ele>449</ele>
        <time>2020-02-18T14:54:44Z</time>
      </trkpt>
      <trkpt lat="43.51546" lon="5.58706">
        <ele>448</ele>
        <time>2020-02-18T14:54:54Z</time>
      </trkpt>
      <trkpt lat="43.51551" lon="5.58693">
        <ele>448</ele>
        <time>2020-02-18T14:55:02Z</time>
      </trkpt>
      <trkpt lat="43.51554" lon="5.5868">
        <ele>448</ele>
        <time>2020-02-18T14:55:11Z</time>
      </trkpt>
      <trkpt lat="43.51559" lon="5.58669">
        <ele>447</ele>
        <time>2020-02-18T14:55:18Z</time>
      </trkpt>
      <trkpt lat="43.51562" lon="5.58656">
        <ele>445</ele>
        <time>2020-02-18T14:55:27Z</time>
      </trkpt>
      <trkpt lat="43.51566" lon="5.58643">
        <ele>445</ele>
        <time>2020-02-18T14:55:35Z</time>
      </trkpt>
      <trkpt lat="43.51565" lon="5.58629">
        <ele>446</ele>
        <time>2020-02-18T14:55:43Z</time>
      </trkpt>
      <trkpt lat="43.51563" lon="5.58616">
        <ele>445</ele>
        <time>2020-02-18T14:55:52Z</time>
      </trkpt>
      <trkpt lat="43.51564" lon="5.58603">
        <ele>444</ele>
        <time>2020-02-18T14:56:01Z</time>
      </trkpt>
      <trkpt lat="43.51563" lon="5.5859">
        <ele>449</ele>
        <time>2020-02-18T14:56:27Z</time>
      </trkpt>
      <trkpt lat="43.51568" lon="5.58579">
        <ele>449</ele>
        <time>2020-02-18T14:56:40Z</time>
      </trkpt>
      <trkpt lat="43.51575" lon="5.5857">
        <ele>448</ele>
        <time>2020-02-18T14:56:49Z</time>
      </trkpt>
      <trkpt lat="43.5158" lon="5.58559">
        <ele>447</ele>
        <time>2020-02-18T14:56:57Z</time>
      </trkpt>
      <trkpt lat="43.51585" lon="5.58547">
        <ele>445</ele>
        <time>2020-02-18T14:57:05Z</time>
      </trkpt>
      <trkpt lat="43.51588" lon="5.58535">
        <ele>443</ele>
        <time>2020-02-18T14:57:14Z</time>
      </trkpt>
      <trkpt lat="43.51592" lon="5.58521">
        <ele>443</ele>
        <time>2020-02-18T14:57:23Z</time>
      </trkpt>
      <trkpt lat="43.51598" lon="5.58507">
        <ele>443</ele>
        <time>2020-02-18T14:57:31Z</time>
      </trkpt>
      <trkpt lat="43.51603" lon="5.58495">
        <ele>440</ele>
        <time>2020-02-18T14:57:39Z</time>
      </trkpt>
      <trkpt lat="43.51605" lon="5.58482">
        <ele>438</ele>
        <time>2020-02-18T14:57:48Z</time>
      </trkpt>
      <trkpt lat="43.5161" lon="5.58471">
        <ele>437</ele>
        <time>2020-02-18T14:57:55Z</time>
      </trkpt>
      <trkpt lat="43.51613" lon="5.58459">
        <ele>436</ele>
        <time>2020-02-18T14:58:02Z</time>
      </trkpt>
      <trkpt lat="43.51619" lon="5.58449">
        <ele>435</ele>
        <time>2020-02-18T14:58:10Z</time>
      </trkpt>
      <trkpt lat="43.51623" lon="5.58438">
        <ele>435</ele>
        <time>2020-02-18T14:58:19Z</time>
      </trkpt>
      <trkpt lat="43.51629" lon="5.58427">
        <ele>436</ele>
        <time>2020-02-18T14:58:29Z</time>
      </trkpt>
      <trkpt lat="43.51633" lon="5.58415">
        <ele>438</ele>
        <time>2020-02-18T14:58:37Z</time>
      </trkpt>
      <trkpt lat="43.51636" lon="5.58403">
        <ele>438</ele>
        <time>2020-02-18T14:58:47Z</time>
      </trkpt>
      <trkpt lat="43.51639" lon="5.58391">
        <ele>438</ele>
        <time>2020-02-18T14:58:56Z</time>
      </trkpt>
      <trkpt lat="43.51645" lon="5.58382">
        <ele>438</ele>
        <time>2020-02-18T14:59:03Z</time>
      </trkpt>
      <trkpt lat="43.51649" lon="5.58369">
        <ele>437</ele>
        <time>2020-02-18T14:59:13Z</time>
      </trkpt>
      <trkpt lat="43.51656" lon="5.5836">
        <ele>437</ele>
        <time>2020-02-18T14:59:23Z</time>
      </trkpt>
      <trkpt lat="43.51663" lon="5.58368">
        <ele>436</ele>
        <time>2020-02-18T14:59:49Z</time>
      </trkpt>
      <trkpt lat="43.51665" lon="5.58381">
        <ele>436</ele>
        <time>2020-02-18T15:00:06Z</time>
      </trkpt>
      <trkpt lat="43.51663" lon="5.58393">
        <ele>435</ele>
        <time>2020-02-18T15:00:15Z</time>
      </trkpt>
      <trkpt lat="43.51662" lon="5.58406">
        <ele>434</ele>
        <time>2020-02-18T15:00:23Z</time>
      </trkpt>
      <trkpt lat="43.5166" lon="5.58418">
        <ele>433</ele>
        <time>2020-02-18T15:00:32Z</time>
      </trkpt>
      <trkpt lat="43.51662" lon="5.58432">
        <ele>431</ele>
        <time>2020-02-18T15:00:39Z</time>
      </trkpt>
      <trkpt lat="43.51662" lon="5.58445">
        <ele>432</ele>
        <time>2020-02-18T15:00:47Z</time>
      </trkpt>
      <trkpt lat="43.51661" lon="5.58459">
        <ele>432</ele>
        <time>2020-02-18T15:00:56Z</time>
      </trkpt>
      <trkpt lat="43.51662" lon="5.58472">
        <ele>432</ele>
        <time>2020-02-18T15:01:03Z</time>
      </trkpt>
      <trkpt lat="43.51661" lon="5.58486">
        <ele>432</ele>
        <time>2020-02-18T15:01:12Z</time>
      </trkpt>
      <trkpt lat="43.51664" lon="5.58499">
        <ele>433</ele>
        <time>2020-02-18T15:01:20Z</time>
      </trkpt>
      <trkpt lat="43.51671" lon="5.58507">
        <ele>435</ele>
        <time>2020-02-18T15:01:28Z</time>
      </trkpt>
      <trkpt lat="43.5168" lon="5.585">
        <ele>429</ele>
        <time>2020-02-18T15:01:37Z</time>
      </trkpt>
      <trkpt lat="43.51685" lon="5.58488">
        <ele>431</ele>
        <time>2020-02-18T15:01:45Z</time>
      </trkpt>
      <trkpt lat="43.51687" lon="5.58475">
        <ele>429</ele>
        <time>2020-02-18T15:01:53Z</time>
      </trkpt>
      <trkpt lat="43.51689" lon="5.58462">
        <ele>426</ele>
        <time>2020-02-18T15:02:01Z</time>
      </trkpt>
      <trkpt lat="43.51693" lon="5.5845">
        <ele>423</ele>
        <time>2020-02-18T15:02:09Z</time>
      </trkpt>
      <trkpt lat="43.51698" lon="5.58439">
        <ele>422</ele>
        <time>2020-02-18T15:02:17Z</time>
      </trkpt>
      <trkpt lat="43.51702" lon="5.58427">
        <ele>422</ele>
        <time>2020-02-18T15:02:26Z</time>
      </trkpt>
      <trkpt lat="43.51706" lon="5.58415">
        <ele>422</ele>
        <time>2020-02-18T15:02:35Z</time>
      </trkpt>
      <trkpt lat="43.51708" lon="5.58402">
        <ele>422</ele>
        <time>2020-02-18T15:02:44Z</time>
      </trkpt>
      <trkpt lat="43.51716" lon="5.58395">
        <ele>423</ele>
        <time>2020-02-18T15:02:53Z</time>
      </trkpt>
      <trkpt lat="43.51722" lon="5.58385">
        <ele>424</ele>
        <time>2020-02-18T15:03:02Z</time>
      </trkpt>
      <trkpt lat="43.51726" lon="5.58373">
        <ele>422</ele>
        <time>2020-02-18T15:03:10Z</time>
      </trkpt>
      <trkpt lat="43.51728" lon="5.5836">
        <ele>422</ele>
        <time>2020-02-18T15:03:19Z</time>
      </trkpt>
      <trkpt lat="43.51728" lon="5.58347">
        <ele>422</ele>
        <time>2020-02-18T15:03:26Z</time>
      </trkpt>
      <trkpt lat="43.51732" lon="5.58335">
        <ele>419</ele>
        <time>2020-02-18T15:03:35Z</time>
      </trkpt>
      <trkpt lat="43.51733" lon="5.58322">
        <ele>420</ele>
        <time>2020-02-18T15:03:44Z</time>
      </trkpt>
      <trkpt lat="43.51736" lon="5.58309">
        <ele>420</ele>
        <time>2020-02-18T15:03:53Z</time>
      </trkpt>
      <trkpt lat="43.51738" lon="5.58297">
        <ele>419</ele>
        <time>2020-02-18T15:04:02Z</time>
      </trkpt>
      <trkpt lat="43.51743" lon="5.58285">
        <ele>417</ele>
        <time>2020-02-18T15:04:11Z</time>
      </trkpt>
      <trkpt lat="43.51749" lon="5.58274">
        <ele>415</ele>
        <time>2020-02-18T15:04:19Z</time>
      </trkpt>
      <trkpt lat="43.51756" lon="5.58267">
        <ele>413</ele>
        <time>2020-02-18T15:04:41Z</time>
      </trkpt>
      <trkpt lat="43.51765" lon="5.58271">
        <ele>411</ele>
        <time>2020-02-18T15:04:52Z</time>
      </trkpt>
      <trkpt lat="43.51774" lon="5.58274">
        <ele>412</ele>
        <time>2020-02-18T15:05:07Z</time>
      </trkpt>
      <trkpt lat="43.51783" lon="5.58272">
        <ele>408</ele>
        <time>2020-02-18T15:05:20Z</time>
      </trkpt>
      <trkpt lat="43.51793" lon="5.58272">
        <ele>412</ele>
        <time>2020-02-18T15:05:45Z</time>
      </trkpt>
      <trkpt lat="43.51802" lon="5.58272">
        <ele>417</ele>
        <time>2020-02-18T15:05:55Z</time>
      </trkpt>
      <trkpt lat="43.51811" lon="5.58271">
        <ele>416</ele>
        <time>2020-02-18T15:06:04Z</time>
      </trkpt>
      <trkpt lat="43.51821" lon="5.58271">
        <ele>419</ele>
        <time>2020-02-18T15:06:14Z</time>
      </trkpt>
      <trkpt lat="43.51831" lon="5.58272">
        <ele>421</ele>
        <time>2020-02-18T15:06:31Z</time>
      </trkpt>
      <trkpt lat="43.51841" lon="5.58273">
        <ele>422</ele>
        <time>2020-02-18T15:06:48Z</time>
      </trkpt>
      <trkpt lat="43.5185" lon="5.58274">
        <ele>421</ele>
        <time>2020-02-18T15:07:01Z</time>
      </trkpt>
      <trkpt lat="43.51859" lon="5.58275">
        <ele>423</ele>
        <time>2020-02-18T15:07:13Z</time>
      </trkpt>
      <trkpt lat="43.51868" lon="5.58276">
        <ele>422</ele>
        <time>2020-02-18T15:07:23Z</time>
      </trkpt>
      <trkpt lat="43.51868" lon="5.58289">
        <ele>420</ele>
        <time>2020-02-18T15:07:52Z</time>
      </trkpt>
      <trkpt lat="43.51867" lon="5.58302">
        <ele>420</ele>
        <time>2020-02-18T15:08:05Z</time>
      </trkpt>
      <trkpt lat="43.51866" lon="5.58314">
        <ele>424</ele>
        <time>2020-02-18T15:08:15Z</time>
      </trkpt>
      <trkpt lat="43.51865" lon="5.58327">
        <ele>428</ele>
        <time>2020-02-18T15:08:24Z</time>
      </trkpt>
      <trkpt lat="43.51864" lon="5.5834">
        <ele>427</ele>
        <time>2020-02-18T15:08:34Z</time>
      </trkpt>
      <trkpt lat="43.51864" lon="5.58354">
        <ele>427</ele>
        <time>2020-02-18T15:08:43Z</time>
      </trkpt>
      <trkpt lat="43.51864" lon="5.58367">
        <ele>428</ele>
        <time>2020-02-18T15:08:52Z</time>
      </trkpt>
      <trkpt lat="43.51864" lon="5.5838">
        <ele>426</ele>
        <time>2020-02-18T15:09:01Z</time>
      </trkpt>
      <trkpt lat="43.51873" lon="5.58383">
        <ele>425</ele>
        <time>2020-02-18T15:09:12Z</time>
      </trkpt>
    </trkseg>
  </trk>
</gpx>